Bookmark and Share
Track history (hours):
 

Elbella

Last reported at 2014-Apr-14 10:34 UTC. Time now 2014-Apr-20 13:21 UTC.
Position N 35°58' W 005°37'.

Length 176 m; draft 9.2 m.

Type: Ship. MMSI: 248422000.

NotesDate/timePositionNaut miles runAvg speedWind from/ knotsBaromVisibWave heightAir tempDewpointWater temp
2014-Apr-14 10:34N 35°58' W 005°37'1111.3
2014-Apr-14 09:33N 36°03' W 005°24'5 5.0
2014-Apr-14 08:33N 36°08' W 005°22'0 0.1
2014-Apr-14 07:33N 36°07' W 005°22'0 0.1
2014-Apr-14 06:33N 36°07' W 005°22'0 0.0
2014-Apr-14 05:33N 36°07' W 005°22'0 0.0
2014-Apr-13 22:33N 36°07' W 005°22'0 0.0
2014-Apr-13 21:33N 36°07' W 005°22'0 0.0
2014-Apr-13 20:33N 36°07' W 005°22'0 0.1
2014-Apr-13 19:33N 36°07' W 005°22'0 0.1
2014-Apr-13 18:33N 36°07' W 005°22'0 0.1
2014-Apr-13 17:33N 36°07' W 005°22'0 0.0
2014-Apr-13 16:33N 36°07' W 005°22'0 0.2
2014-Apr-13 15:33N 36°08' W 005°22'0 0.2
2014-Apr-13 14:33N 36°07' W 005°22'2 2.2
2014-Apr-13 13:33N 36°05' W 005°22'1 0.6
2014-Apr-13 12:33N 36°05' W 005°22'9 9.0
2014-Apr-13 11:33N 36°06' W 005°11'1010.2
2014-Apr-13 10:33N 36°08' W 004°58'22211.7
2014-Apr-12 15:32N 37°30' W 000°40'1211.7
2014-Apr-12 14:31N 37°39' W 000°30'121 5.0
2014-Apr-11 14:32N 39°39' W 000°13'0 0.0
2014-Apr-11 13:32N 39°39' W 000°13'63 1.7
2014-Apr-10 00:05N 39°57' E 001°06'611.9
2014-Apr-09 23:33N 40°02' E 001°11'1211.7
2014-Apr-09 22:33N 40°13' E 001°19'1211.8
2014-Apr-09 21:33N 40°23' E 001°26'1211.7
2014-Apr-09 20:33N 40°34' E 001°30'1211.8
2014-Apr-09 19:33N 40°46' E 001°29'1211.9
2014-Apr-09 18:34N 40°56' E 001°20'1111.0
2014-Apr-09 17:33N 41°05' E 001°13'1 0.5
2014-Apr-09 16:33N 41°06' E 001°13'0 0.0
2014-Apr-09 15:33N 41°06' E 001°13'0 0.0
2014-Apr-09 14:34N 41°06' E 001°13'0 0.0
2014-Apr-09 13:32N 41°06' E 001°13'0 0.0
2014-Apr-09 12:34N 41°06' E 001°13'0 0.0
2014-Apr-09 11:33N 41°06' E 001°13'0 0.0
2014-Apr-09 10:34N 41°06' E 001°13'0 0.0
2014-Apr-09 08:33N 41°06' E 001°13'19 2.9
2014-Apr-09 02:09N 40°50' E 001°26'813.4
2014-Apr-09 01:33N 40°43' E 001°31'1413.8
2014-Apr-09 00:33N 40°29' E 001°30'1413.8
2014-Apr-08 23:33N 40°16' E 001°23'1414.1
2014-Apr-08 22:33N 40°04' E 001°15'1413.9
2014-Apr-08 21:33N 39°51' E 001°07'4613.3
2014-Apr-08 18:06N 39°09' E 000°44'6912.5
2014-Apr-08 12:32N 38°09' W 000°00'1713.2
2014-Apr-08 11:16N 37°55' W 000°12'912.2
2014-Apr-08 10:33N 37°47' W 000°18'1312.9
2014-Apr-08 09:33N 37°37' W 000°27'1312.8
2014-Apr-08 08:33N 37°27' W 000°38'22112.1
2014-Apr-07 14:16N 36°07' W 004°56'912.3
2014-Apr-07 13:34N 36°06' W 005°07'1212.3
2014-Apr-07 12:34N 36°05' W 005°22'5 5.3
2014-Apr-07 11:32N 36°09' W 005°26'0 0.0
2014-Apr-06 21:32N 36°10' W 005°26'0 0.0
2014-Apr-06 20:32N 36°09' W 005°26'1 0.8
2014-Apr-06 19:33N 36°09' W 005°26'0 0.0
2014-Apr-06 18:28N 36°09' W 005°26'0 0.0
2014-Apr-06 17:33N 36°09' W 005°26'0 0.0
2014-Apr-06 16:34N 36°09' W 005°26'0 0.0
2014-Apr-06 15:33N 36°09' W 005°26'0 0.0
2014-Apr-06 14:33N 36°09' W 005°26'0 0.0
2014-Apr-06 13:33N 36°09' W 005°26'0 0.0
2014-Apr-06 12:33N 36°09' W 005°26'0 0.0
2014-Apr-06 11:33N 36°09' W 005°26'0 0.0
2014-Apr-06 10:34N 36°09' W 005°26'0 0.0
2014-Apr-06 09:33N 36°09' W 005°26'0 0.0
2014-Apr-06 08:33N 36°09' W 005°26'0 0.0
2014-Apr-06 07:33N 36°09' W 005°26'0 0.0
2014-Apr-06 06:33N 36°09' W 005°26'0 0.0
2014-Apr-06 05:33N 36°09' W 005°26'0 0.0
2014-Apr-06 04:34N 36°09' W 005°26'0 0.0
2014-Apr-06 03:34N 36°09' W 005°26'0 0.0
2014-Apr-06 02:33N 36°09' W 005°26'0 0.0
2014-Apr-06 01:33N 36°09' W 005°26'2 1.8
2014-Apr-06 00:34N 36°08' W 005°24'9 9.0
2014-Apr-05 23:33N 36°07' W 005°13'6 6.2
2014-Apr-05 22:33N 36°09' W 005°06'0 0.1
2014-Apr-05 21:33N 36°09' W 005°06'0 0.3
2014-Apr-05 20:33N 36°09' W 005°07'3 2.8
2014-Apr-05 19:33N 36°10' W 005°10'5 4.9
2014-Apr-05 18:33N 36°06' W 005°13'1312.8
2014-Apr-05 17:33N 35°58' W 005°25'1612.4
2014-Apr-05 16:18N 35°54' W 005°44'911.8
2014-Apr-05 15:33N 35°54' W 005°55'21710.6
2014-Apr-04 19:06N 37°43' W 009°49'  

Dump ship's entire track history

sailing weather and tide predictions

Elbella — 9HA2358 — position and weather